sensor_id;sensor_type;location;lat;lon;timestamp;temperature;humidity
57664;DHT22;43493;53.098;6.064;2022-09-30T00:01:45;9.40;99.90
57664;DHT22;43493;53.098;6.064;2022-09-30T00:04:20;9.30;99.90
57664;DHT22;43493;53.098;6.064;2022-09-30T00:06:47;9.30;99.90
57664;DHT22;43493;53.098;6.064;2022-09-30T00:09:13;9.30;99.90
57664;DHT22;43493;53.098;6.064;2022-09-30T00:11:40;9.30;99.90
57664;DHT22;43493;53.098;6.064;2022-09-30T00:14:09;9.20;99.90
57664;DHT22;43493;53.098;6.064;2022-09-30T00:16:36;9.30;99.90
57664;DHT22;43493;53.098;6.064;2022-09-30T00:19:03;9.20;99.90
57664;DHT22;43493;53.098;6.064;2022-09-30T00:21:31;9.20;99.90
57664;DHT22;43493;53.098;6.064;2022-09-30T00:23:58;9.20;99.90
57664;DHT22;43493;53.098;6.064;2022-09-30T00:26:24;9.20;99.90
57664;DHT22;43493;53.098;6.064;2022-09-30T00:28:54;9.20;99.90
57664;DHT22;43493;53.098;6.064;2022-09-30T00:31:22;9.10;99.90
57664;DHT22;43493;53.098;6.064;2022-09-30T00:33:49;9.10;99.90
57664;DHT22;43493;53.098;6.064;2022-09-30T00:36:48;9.00;99.90
57664;DHT22;43493;53.098;6.064;2022-09-30T00:39:25;9.00;99.90
57664;DHT22;43493;53.098;6.064;2022-09-30T00:41:57;9.00;99.90
57664;DHT22;43493;53.098;6.064;2022-09-30T00:47:05;9.20;99.90
57664;DHT22;43493;53.098;6.064;2022-09-30T00:49:39;9.00;99.90
57664;DHT22;43493;53.098;6.064;2022-09-30T00:52:05;8.90;99.90
57664;DHT22;43493;53.098;6.064;2022-09-30T00:54:31;8.90;99.90
57664;DHT22;43493;53.098;6.064;2022-09-30T00:56:59;8.90;99.90
57664;DHT22;43493;53.098;6.064;2022-09-30T00:59:41;8.80;99.90
57664;DHT22;43493;53.098;6.064;2022-09-30T01:02:09;8.80;99.90
57664;DHT22;43493;53.098;6.064;2022-09-30T01:04:36;8.70;99.90
57664;DHT22;43493;53.098;6.064;2022-09-30T01:07:05;8.70;99.90
57664;DHT22;43493;53.098;6.064;2022-09-30T01:09:36;8.70;99.90
57664;DHT22;43493;53.098;6.064;2022-09-30T01:12:08;8.70;99.90
57664;DHT22;43493;53.098;6.064;2022-09-30T01:14:35;8.70;99.90
57664;DHT22;43493;53.098;6.064;2022-09-30T01:17:34;8.60;99.90
57664;DHT22;43493;53.098;6.064;2022-09-30T01:20:30;8.70;99.90
57664;DHT22;43493;53.098;6.064;2022-09-30T01:29:11;8.60;99.90
57664;DHT22;43493;53.098;6.064;2022-09-30T01:31:56;8.50;99.90
57664;DHT22;43493;53.098;6.064;2022-09-30T01:40:14;8.50;99.90
57664;DHT22;43493;53.098;6.064;2022-09-30T01:45:36;8.50;99.90
57664;DHT22;43493;53.098;6.064;2022-09-30T01:48:22;8.40;99.90
57664;DHT22;43493;53.098;6.064;2022-09-30T01:53:40;8.40;99.90
57664;DHT22;43493;53.098;6.064;2022-09-30T01:56:28;8.40;99.90
57664;DHT22;43493;53.098;6.064;2022-09-30T01:59:09;8.50;99.90
57664;DHT22;43493;53.098;6.064;2022-09-30T02:01:44;8.50;99.90
57664;DHT22;43493;53.098;6.064;2022-09-30T02:04:35;8.40;99.90
57664;DHT22;43493;53.098;6.064;2022-09-30T02:07:09;8.30;99.90
57664;DHT22;43493;53.098;6.064;2022-09-30T02:10:05;8.30;99.90
57664;DHT22;43493;53.098;6.064;2022-09-30T02:12:33;8.40;99.90
57664;DHT22;43493;53.098;6.064;2022-09-30T02:15:05;8.30;99.90
57664;DHT22;43493;53.098;6.064;2022-09-30T02:18:03;8.20;99.90
57664;DHT22;43493;53.098;6.064;2022-09-30T02:20:34;8.20;99.90
57664;DHT22;43493;53.098;6.064;2022-09-30T02:23:15;8.20;99.90
57664;DHT22;43493;53.098;6.064;2022-09-30T02:25:47;8.20;99.90
57664;DHT22;43493;53.098;6.064;2022-09-30T02:28:19;8.30;99.90
57664;DHT22;43493;53.098;6.064;2022-09-30T02:30:49;8.20;99.90
57664;DHT22;43493;53.098;6.064;2022-09-30T02:33:21;8.20;99.90
57664;DHT22;43493;53.098;6.064;2022-09-30T02:35:54;8.10;99.90
57664;DHT22;43493;53.098;6.064;2022-09-30T02:38:40;8.10;99.90
57664;DHT22;43493;53.098;6.064;2022-09-30T02:41:08;8.10;99.90
57664;DHT22;43493;53.098;6.064;2022-09-30T02:43:35;8.10;99.90
57664;DHT22;43493;53.098;6.064;2022-09-30T02:46:42;8.10;99.90
57664;DHT22;43493;53.098;6.064;2022-09-30T02:59:52;8.10;99.90
57664;DHT22;43493;53.098;6.064;2022-09-30T03:02:19;8.00;99.90
57664;DHT22;43493;53.098;6.064;2022-09-30T03:04:46;8.00;99.90
57664;DHT22;43493;53.098;6.064;2022-09-30T03:07:13;8.00;99.90
57664;DHT22;43493;53.098;6.064;2022-09-30T03:09:39;8.00;99.90
57664;DHT22;43493;53.098;6.064;2022-09-30T03:17:50;7.90;99.90
57664;DHT22;43493;53.098;6.064;2022-09-30T03:20:33;7.90;99.90
57664;DHT22;43493;53.098;6.064;2022-09-30T03:34:56;7.90;99.90
57664;DHT22;43493;53.098;6.064;2022-09-30T03:37:45;7.90;99.90
57664;DHT22;43493;53.098;6.064;2022-09-30T03:43:11;7.80;99.90
57664;DHT22;43493;53.098;6.064;2022-09-30T03:45:47;7.90;99.90
57664;DHT22;43493;53.098;6.064;2022-09-30T03:48:15;7.90;99.90
57664;DHT22;43493;53.098;6.064;2022-09-30T03:50:41;7.80;99.90
57664;DHT22;43493;53.098;6.064;2022-09-30T03:53:09;7.80;99.90
57664;DHT22;43493;53.098;6.064;2022-09-30T03:55:48;7.80;99.90
57664;DHT22;43493;53.098;6.064;2022-09-30T03:58:15;7.80;99.90
57664;DHT22;43493;53.098;6.064;2022-09-30T04:00:47;7.80;99.90
57664;DHT22;43493;53.098;6.064;2022-09-30T04:03:15;7.80;99.90
57664;DHT22;43493;53.098;6.064;2022-09-30T04:05:41;7.80;99.90
57664;DHT22;43493;53.098;6.064;2022-09-30T04:08:07;7.70;99.90
57664;DHT22;43493;53.098;6.064;2022-09-30T04:10:33;7.80;99.90
57664;DHT22;43493;53.098;6.064;2022-09-30T04:15:24;7.80;99.90
57664;DHT22;43493;53.098;6.064;2022-09-30T04:17:52;7.80;99.90
57664;DHT22;43493;53.098;6.064;2022-09-30T04:20:18;7.80;99.90
57664;DHT22;43493;53.098;6.064;2022-09-30T04:22:43;7.80;99.90
57664;DHT22;43493;53.098;6.064;2022-09-30T04:25:09;7.80;99.90
57664;DHT22;43493;53.098;6.064;2022-09-30T04:27:35;7.70;99.90
57664;DHT22;43493;53.098;6.064;2022-09-30T04:30:01;7.70;99.90
57664;DHT22;43493;53.098;6.064;2022-09-30T04:32:26;7.70;99.90
57664;DHT22;43493;53.098;6.064;2022-09-30T04:34:53;7.70;99.90
57664;DHT22;43493;53.098;6.064;2022-09-30T04:37:19;7.70;99.90
57664;DHT22;43493;53.098;6.064;2022-09-30T04:39:45;7.60;99.90
57664;DHT22;43493;53.098;6.064;2022-09-30T04:42:11;7.70;99.90
57664;DHT22;43493;53.098;6.064;2022-09-30T04:44:37;7.60;99.90
57664;DHT22;43493;53.098;6.064;2022-09-30T04:47:02;7.70;99.90
57664;DHT22;43493;53.098;6.064;2022-09-30T04:49:28;7.60;99.90
57664;DHT22;43493;53.098;6.064;2022-09-30T04:51:54;7.60;99.90
57664;DHT22;43493;53.098;6.064;2022-09-30T04:54:20;7.60;99.90
57664;DHT22;43493;53.098;6.064;2022-09-30T04:56:46;7.60;99.90
57664;DHT22;43493;53.098;6.064;2022-09-30T04:59:11;7.60;99.90
57664;DHT22;43493;53.098;6.064;2022-09-30T05:01:37;7.50;99.90
57664;DHT22;43493;53.098;6.064;2022-09-30T05:06:30;7.60;99.90
57664;DHT22;43493;53.098;6.064;2022-09-30T05:08:56;7.50;99.90
57664;DHT22;43493;53.098;6.064;2022-09-30T05:11:22;7.50;99.90
57664;DHT22;43493;53.098;6.064;2022-09-30T05:13:48;7.50;99.90
57664;DHT22;43493;53.098;6.064;2022-09-30T05:16:16;7.50;99.90
57664;DHT22;43493;53.098;6.064;2022-09-30T05:18:42;7.40;99.90
57664;DHT22;43493;53.098;6.064;2022-09-30T05:21:11;7.40;99.90
57664;DHT22;43493;53.098;6.064;2022-09-30T05:23:37;7.50;99.90
57664;DHT22;43493;53.098;6.064;2022-09-30T05:26:03;7.40;99.90
57664;DHT22;43493;53.098;6.064;2022-09-30T05:28:29;7.40;99.90
57664;DHT22;43493;53.098;6.064;2022-09-30T05:31:00;7.40;99.90
57664;DHT22;43493;53.098;6.064;2022-09-30T05:33:28;7.40;99.90
57664;DHT22;43493;53.098;6.064;2022-09-30T05:35:57;7.40;99.90
57664;DHT22;43493;53.098;6.064;2022-09-30T05:38:23;7.40;99.90
57664;DHT22;43493;53.098;6.064;2022-09-30T05:40:49;7.30;99.90
57664;DHT22;43493;53.098;6.064;2022-09-30T05:43:15;7.30;99.90
57664;DHT22;43493;53.098;6.064;2022-09-30T05:45:40;7.40;99.90
57664;DHT22;43493;53.098;6.064;2022-09-30T05:48:06;7.30;99.90
57664;DHT22;43493;53.098;6.064;2022-09-30T05:50:32;7.30;99.90
57664;DHT22;43493;53.098;6.064;2022-09-30T05:52:59;7.30;99.90
57664;DHT22;43493;53.098;6.064;2022-09-30T05:55:25;7.30;99.90
57664;DHT22;43493;53.098;6.064;2022-09-30T05:57:51;7.40;99.90
57664;DHT22;43493;53.098;6.064;2022-09-30T06:00:18;7.40;99.90
57664;DHT22;43493;53.098;6.064;2022-09-30T06:02:44;7.50;99.90
57664;DHT22;43493;53.098;6.064;2022-09-30T06:05:10;7.50;99.90
57664;DHT22;43493;53.098;6.064;2022-09-30T06:07:36;7.50;99.90
57664;DHT22;43493;53.098;6.064;2022-09-30T06:10:07;7.50;99.90
57664;DHT22;43493;53.098;6.064;2022-09-30T06:12:35;7.50;99.90
57664;DHT22;43493;53.098;6.064;2022-09-30T06:15:01;7.50;99.90
57664;DHT22;43493;53.098;6.064;2022-09-30T06:17:27;7.50;99.90
57664;DHT22;43493;53.098;6.064;2022-09-30T06:19:53;7.50;99.90
57664;DHT22;43493;53.098;6.064;2022-09-30T06:22:18;7.60;99.90
57664;DHT22;43493;53.098;6.064;2022-09-30T06:24:44;7.60;99.90
57664;DHT22;43493;53.098;6.064;2022-09-30T06:27:11;7.60;99.90
57664;DHT22;43493;53.098;6.064;2022-09-30T06:29:37;7.60;99.90
57664;DHT22;43493;53.098;6.064;2022-09-30T06:32:03;7.60;99.90
57664;DHT22;43493;53.098;6.064;2022-09-30T06:34:29;7.60;99.90
57664;DHT22;43493;53.098;6.064;2022-09-30T06:36:54;7.70;99.90
57664;DHT22;43493;53.098;6.064;2022-09-30T06:39:20;7.70;99.90
57664;DHT22;43493;53.098;6.064;2022-09-30T06:41:46;7.70;99.90
57664;DHT22;43493;53.098;6.064;2022-09-30T06:44:11;7.70;99.90
57664;DHT22;43493;53.098;6.064;2022-09-30T06:46:37;7.80;99.90
57664;DHT22;43493;53.098;6.064;2022-09-30T06:49:03;7.80;99.90
57664;DHT22;43493;53.098;6.064;2022-09-30T06:51:31;7.80;99.90
57664;DHT22;43493;53.098;6.064;2022-09-30T06:54:00;7.80;99.90
57664;DHT22;43493;53.098;6.064;2022-09-30T06:56:27;7.90;99.90
57664;DHT22;43493;53.098;6.064;2022-09-30T06:58:53;7.90;99.90
57664;DHT22;43493;53.098;6.064;2022-09-30T07:01:21;8.00;99.90
57664;DHT22;43493;53.098;6.064;2022-09-30T07:03:49;8.00;99.90
57664;DHT22;43493;53.098;6.064;2022-09-30T07:06:23;8.20;99.90
57664;DHT22;43493;53.098;6.064;2022-09-30T07:08:49;8.80;99.90
57664;DHT22;43493;53.098;6.064;2022-09-30T07:11:16;10.10;99.90
57664;DHT22;43493;53.098;6.064;2022-09-30T07:13:42;11.40;99.90
57664;DHT22;43493;53.098;6.064;2022-09-30T07:16:10;12.40;99.90
57664;DHT22;43493;53.098;6.064;2022-09-30T07:18:37;12.70;99.90
57664;DHT22;43493;53.098;6.064;2022-09-30T07:23:29;12.20;99.90
57664;DHT22;43493;53.098;6.064;2022-09-30T07:25:58;12.00;99.90
57664;DHT22;43493;53.098;6.064;2022-09-30T07:28:27;11.90;99.90
57664;DHT22;43493;53.098;6.064;2022-09-30T07:30:57;11.80;99.90
57664;DHT22;43493;53.098;6.064;2022-09-30T07:33:25;11.70;99.90
57664;DHT22;43493;53.098;6.064;2022-09-30T07:35:56;11.70;99.90
57664;DHT22;43493;53.098;6.064;2022-09-30T07:38:25;11.60;99.90
57664;DHT22;43493;53.098;6.064;2022-09-30T07:41:00;11.50;99.90
57664;DHT22;43493;53.098;6.064;2022-09-30T07:43:29;11.40;99.90
57664;DHT22;43493;53.098;6.064;2022-09-30T07:46:07;11.20;99.90
57664;DHT22;43493;53.098;6.064;2022-09-30T07:48:35;11.10;99.90
57664;DHT22;43493;53.098;6.064;2022-09-30T07:51:11;11.00;99.90
57664;DHT22;43493;53.098;6.064;2022-09-30T07:53:39;10.90;99.90
57664;DHT22;43493;53.098;6.064;2022-09-30T07:56:05;10.90;99.90
57664;DHT22;43493;53.098;6.064;2022-09-30T07:58:31;10.90;99.90
57664;DHT22;43493;53.098;6.064;2022-09-30T08:00:57;11.00;99.90
57664;DHT22;43493;53.098;6.064;2022-09-30T08:03:23;11.00;99.90
57664;DHT22;43493;53.098;6.064;2022-09-30T08:05:48;11.10;99.90
57664;DHT22;43493;53.098;6.064;2022-09-30T08:08:15;11.10;99.90
57664;DHT22;43493;53.098;6.064;2022-09-30T08:10:41;11.20;99.90
57664;DHT22;43493;53.098;6.064;2022-09-30T08:13:08;11.30;99.90
57664;DHT22;43493;53.098;6.064;2022-09-30T08:15:34;11.50;99.90
57664;DHT22;43493;53.098;6.064;2022-09-30T08:18:00;11.50;99.90
57664;DHT22;43493;53.098;6.064;2022-09-30T08:20:26;11.60;99.90
57664;DHT22;43493;53.098;6.064;2022-09-30T08:22:55;11.70;99.90
57664;DHT22;43493;53.098;6.064;2022-09-30T08:25:22;11.70;99.90
57664;DHT22;43493;53.098;6.064;2022-09-30T08:27:49;11.80;99.90
57664;DHT22;43493;53.098;6.064;2022-09-30T08:30:15;11.90;99.90
57664;DHT22;43493;53.098;6.064;2022-09-30T08:32:41;11.90;99.90
57664;DHT22;43493;53.098;6.064;2022-09-30T08:35:07;11.90;99.90
57664;DHT22;43493;53.098;6.064;2022-09-30T08:37:33;12.00;99.90
57664;DHT22;43493;53.098;6.064;2022-09-30T08:39:59;12.00;99.90
57664;DHT22;43493;53.098;6.064;2022-09-30T08:42:46;12.10;99.90
57664;DHT22;43493;53.098;6.064;2022-09-30T08:45:28;12.10;99.90
57664;DHT22;43493;53.098;6.064;2022-09-30T08:50:51;12.20;99.90
57664;DHT22;43493;53.098;6.064;2022-09-30T08:53:26;12.20;99.90
57664;DHT22;43493;53.098;6.064;2022-09-30T08:55:56;12.20;99.90
57664;DHT22;43493;53.098;6.064;2022-09-30T08:58:32;12.20;99.90
57664;DHT22;43493;53.098;6.064;2022-09-30T09:01:34;12.30;99.90
57664;DHT22;43493;53.098;6.064;2022-09-30T09:04:02;12.30;99.90
57664;DHT22;43493;53.098;6.064;2022-09-30T09:09:15;12.30;99.90
57664;DHT22;43493;53.098;6.064;2022-09-30T09:12:04;12.20;99.90
57664;DHT22;43493;53.098;6.064;2022-09-30T09:15:06;12.20;99.90
57664;DHT22;43493;53.098;6.064;2022-09-30T09:17:58;12.30;99.90
57664;DHT22;43493;53.098;6.064;2022-09-30T09:20:31;12.30;99.90
57664;DHT22;43493;53.098;6.064;2022-09-30T09:23:00;12.40;99.90
57664;DHT22;43493;53.098;6.064;2022-09-30T09:25:27;12.40;99.90
57664;DHT22;43493;53.098;6.064;2022-09-30T09:30:43;12.40;99.90
57664;DHT22;43493;53.098;6.064;2022-09-30T09:33:20;12.40;99.90
57664;DHT22;43493;53.098;6.064;2022-09-30T09:46:54;12.60;99.90
57664;DHT22;43493;53.098;6.064;2022-09-30T09:49:28;12.60;99.90
57664;DHT22;43493;53.098;6.064;2022-09-30T09:54:24;12.80;99.90
57664;DHT22;43493;53.098;6.064;2022-09-30T09:56:52;12.80;99.90
57664;DHT22;43493;53.098;6.064;2022-09-30T09:59:19;12.80;99.90
57664;DHT22;43493;53.098;6.064;2022-09-30T10:04:16;13.00;99.90
57664;DHT22;43493;53.098;6.064;2022-09-30T10:14:39;13.00;99.90
57664;DHT22;43493;53.098;6.064;2022-09-30T10:17:39;13.00;99.90
57664;DHT22;43493;53.098;6.064;2022-09-30T10:22:40;13.10;99.90
57664;DHT22;43493;53.098;6.064;2022-09-30T10:32:57;13.30;99.90
57664;DHT22;43493;53.098;6.064;2022-09-30T10:35:23;13.30;99.90
57664;DHT22;43493;53.098;6.064;2022-09-30T10:55:25;13.90;99.90
57664;DHT22;43493;53.098;6.064;2022-09-30T10:57:54;13.80;99.90
57664;DHT22;43493;53.098;6.064;2022-09-30T11:00:24;13.90;99.90
57664;DHT22;43493;53.098;6.064;2022-09-30T11:02:57;14.10;99.90
57664;DHT22;43493;53.098;6.064;2022-09-30T11:08:17;14.00;99.90
57664;DHT22;43493;53.098;6.064;2022-09-30T11:11:07;14.10;99.90
57664;DHT22;43493;53.098;6.064;2022-09-30T11:13:43;14.00;99.90
57664;DHT22;43493;53.098;6.064;2022-09-30T11:51:24;14.50;99.90
57664;DHT22;43493;53.098;6.064;2022-09-30T12:06:56;14.90;99.90
57664;DHT22;43493;53.098;6.064;2022-09-30T12:09:31;14.80;99.90
57664;DHT22;43493;53.098;6.064;2022-09-30T12:12:02;14.80;99.90
57664;DHT22;43493;53.098;6.064;2022-09-30T12:14:54;14.80;99.90
57664;DHT22;43493;53.098;6.064;2022-09-30T12:17:59;14.10;99.90
57664;DHT22;43493;53.098;6.064;2022-09-30T12:20:33;14.90;99.90
57664;DHT22;43493;53.098;6.064;2022-09-30T12:28:55;14.80;99.90
57664;DHT22;43493;53.098;6.064;2022-09-30T12:48:38;15.00;99.90
57664;DHT22;43493;53.098;6.064;2022-09-30T12:51:05;15.10;99.90
57664;DHT22;43493;53.098;6.064;2022-09-30T12:53:35;15.10;99.90
57664;DHT22;43493;53.098;6.064;2022-09-30T12:56:11;15.10;99.90
57664;DHT22;43493;53.098;6.064;2022-09-30T12:58:47;15.10;99.90
57664;DHT22;43493;53.098;6.064;2022-09-30T13:06:24;15.20;99.90
57664;DHT22;43493;53.098;6.064;2022-09-30T13:11:46;15.30;99.90
57664;DHT22;43493;53.098;6.064;2022-09-30T13:14:18;15.20;99.90
57664;DHT22;43493;53.098;6.064;2022-09-30T13:19:42;15.20;99.90
57664;DHT22;43493;53.098;6.064;2022-09-30T13:43:19;15.60;99.90
57664;DHT22;43493;53.098;6.064;2022-09-30T13:45:48;15.50;99.90
57664;DHT22;43493;53.098;6.064;2022-09-30T13:48:21;15.40;99.90
57664;DHT22;43493;53.098;6.064;2022-09-30T13:50:50;15.40;99.90
57664;DHT22;43493;53.098;6.064;2022-09-30T13:53:26;15.50;99.90
57664;DHT22;43493;53.098;6.064;2022-09-30T13:55:54;15.50;99.90
57664;DHT22;43493;53.098;6.064;2022-09-30T13:58:45;15.50;99.90
57664;DHT22;43493;53.098;6.064;2022-09-30T14:21:12;15.30;99.90
57664;DHT22;43493;53.098;6.064;2022-09-30T14:23:54;15.30;99.90
57664;DHT22;43493;53.098;6.064;2022-09-30T14:31:44;15.30;99.90
57664;DHT22;43493;53.098;6.064;2022-09-30T14:34:15;15.30;99.90
57664;DHT22;43493;53.098;6.064;2022-09-30T14:36:43;15.30;99.90
57664;DHT22;43493;53.098;6.064;2022-09-30T14:39:17;15.30;99.90
57664;DHT22;43493;53.098;6.064;2022-09-30T14:41:56;15.40;99.90
57664;DHT22;43493;53.098;6.064;2022-09-30T14:44:24;15.50;99.90
57664;DHT22;43493;53.098;6.064;2022-09-30T14:46:51;15.50;99.90
57664;DHT22;43493;53.098;6.064;2022-09-30T14:49:25;15.40;99.90
57664;DHT22;43493;53.098;6.064;2022-09-30T14:51:57;15.50;99.90
57664;DHT22;43493;53.098;6.064;2022-09-30T14:54:26;15.40;99.90
57664;DHT22;43493;53.098;6.064;2022-09-30T14:56:56;15.40;99.90
57664;DHT22;43493;53.098;6.064;2022-09-30T14:59:31;15.40;99.90
57664;DHT22;43493;53.098;6.064;2022-09-30T15:01:58;15.40;99.90
57664;DHT22;43493;53.098;6.064;2022-09-30T15:04:32;15.30;99.90
57664;DHT22;43493;53.098;6.064;2022-09-30T15:07:00;15.30;99.90
57664;DHT22;43493;53.098;6.064;2022-09-30T15:09:41;15.20;99.90
57664;DHT22;43493;53.098;6.064;2022-09-30T15:12:22;15.30;99.90
57664;DHT22;43493;53.098;6.064;2022-09-30T15:14:58;15.20;99.90
57664;DHT22;43493;53.098;6.064;2022-09-30T15:17:27;15.20;99.90
57664;DHT22;43493;53.098;6.064;2022-09-30T15:19:55;15.10;99.90
57664;DHT22;43493;53.098;6.064;2022-09-30T15:22:26;15.10;99.90
57664;DHT22;43493;53.098;6.064;2022-09-30T15:24:54;15.10;99.90
57664;DHT22;43493;53.098;6.064;2022-09-30T15:27:27;15.10;99.90
57664;DHT22;43493;53.098;6.064;2022-09-30T15:32:43;15.10;99.90
57664;DHT22;43493;53.098;6.064;2022-09-30T15:35:19;15.10;99.90
57664;DHT22;43493;53.098;6.064;2022-09-30T15:37:47;15.10;99.90
57664;DHT22;43493;53.098;6.064;2022-09-30T15:40:18;15.20;99.90
57664;DHT22;43493;53.098;6.064;2022-09-30T15:43:08;15.20;99.90
57664;DHT22;43493;53.098;6.064;2022-09-30T15:45:40;15.30;99.90
57664;DHT22;43493;53.098;6.064;2022-09-30T15:50:42;15.30;99.90
57664;DHT22;43493;53.098;6.064;2022-09-30T15:55:43;15.30;99.90
57664;DHT22;43493;53.098;6.064;2022-09-30T16:00:52;15.20;99.90
57664;DHT22;43493;53.098;6.064;2022-09-30T16:05:44;15.20;99.90
57664;DHT22;43493;53.098;6.064;2022-09-30T16:08:21;15.20;99.90
57664;DHT22;43493;53.098;6.064;2022-09-30T16:10:53;15.10;99.90
57664;DHT22;43493;53.098;6.064;2022-09-30T16:13:26;15.10;99.90
57664;DHT22;43493;53.098;6.064;2022-09-30T16:15:53;15.10;99.90
57664;DHT22;43493;53.098;6.064;2022-09-30T16:18:24;15.00;99.90
57664;DHT22;43493;53.098;6.064;2022-09-30T16:21:04;15.00;99.90
57664;DHT22;43493;53.098;6.064;2022-09-30T16:23:35;14.90;99.90
57664;DHT22;43493;53.098;6.064;2022-09-30T16:26:20;14.90;99.90
57664;DHT22;43493;53.098;6.064;2022-09-30T16:28:49;14.90;99.90
57664;DHT22;43493;53.098;6.064;2022-09-30T16:31:16;14.80;99.90
57664;DHT22;43493;53.098;6.064;2022-09-30T16:33:44;14.80;99.90
57664;DHT22;43493;53.098;6.064;2022-09-30T16:36:10;14.80;99.90
57664;DHT22;43493;53.098;6.064;2022-09-30T16:38:37;14.80;99.90
57664;DHT22;43493;53.098;6.064;2022-09-30T16:41:03;14.70;99.90
57664;DHT22;43493;53.098;6.064;2022-09-30T16:43:30;14.70;99.90
57664;DHT22;43493;53.098;6.064;2022-09-30T16:45:57;14.70;99.90
57664;DHT22;43493;53.098;6.064;2022-09-30T16:48:24;14.60;99.90
57664;DHT22;43493;53.098;6.064;2022-09-30T16:51:03;14.60;99.90
57664;DHT22;43493;53.098;6.064;2022-09-30T16:53:29;14.50;99.90
57664;DHT22;43493;53.098;6.064;2022-09-30T16:55:55;14.50;99.90
57664;DHT22;43493;53.098;6.064;2022-09-30T16:58:21;14.40;99.90
57664;DHT22;43493;53.098;6.064;2022-09-30T17:00:47;14.40;99.90
57664;DHT22;43493;53.098;6.064;2022-09-30T17:03:17;14.30;99.90
57664;DHT22;43493;53.098;6.064;2022-09-30T17:05:44;14.20;99.90
57664;DHT22;43493;53.098;6.064;2022-09-30T17:08:12;14.10;99.90
57664;DHT22;43493;53.098;6.064;2022-09-30T17:10:39;14.10;99.90
57664;DHT22;43493;53.098;6.064;2022-09-30T17:13:04;14.10;99.90
57664;DHT22;43493;53.098;6.064;2022-09-30T17:15:32;14.00;99.90
57664;DHT22;43493;53.098;6.064;2022-09-30T17:17:58;14.00;99.90
57664;DHT22;43493;53.098;6.064;2022-09-30T17:20:25;13.90;99.90
57664;DHT22;43493;53.098;6.064;2022-09-30T17:22:51;13.90;99.90
57664;DHT22;43493;53.098;6.064;2022-09-30T17:25:17;13.80;99.90
57664;DHT22;43493;53.098;6.064;2022-09-30T17:27:46;13.80;99.90
57664;DHT22;43493;53.098;6.064;2022-09-30T17:30:13;13.80;99.90
57664;DHT22;43493;53.098;6.064;2022-09-30T17:32:40;13.70;99.90
57664;DHT22;43493;53.098;6.064;2022-09-30T17:35:07;13.80;99.90
57664;DHT22;43493;53.098;6.064;2022-09-30T17:37:33;13.60;99.90
57664;DHT22;43493;53.098;6.064;2022-09-30T18:24:19;13.30;99.90
57664;DHT22;43493;53.098;6.064;2022-09-30T18:27:05;13.20;99.90
57664;DHT22;43493;53.098;6.064;2022-09-30T18:29:30;13.30;99.90
57664;DHT22;43493;53.098;6.064;2022-09-30T18:31:56;13.20;99.90
57664;DHT22;43493;53.098;6.064;2022-09-30T18:34:22;13.20;99.90
57664;DHT22;43493;53.098;6.064;2022-09-30T18:36:48;13.20;99.90
57664;DHT22;43493;53.098;6.064;2022-09-30T18:39:14;13.10;99.90
57664;DHT22;43493;53.098;6.064;2022-09-30T18:41:39;13.10;99.90
57664;DHT22;43493;53.098;6.064;2022-09-30T18:44:08;13.20;99.90
57664;DHT22;43493;53.098;6.064;2022-09-30T18:46:34;13.20;99.90
57664;DHT22;43493;53.098;6.064;2022-09-30T18:49:02;13.20;99.90
57664;DHT22;43493;53.098;6.064;2022-09-30T18:51:28;13.20;99.90
57664;DHT22;43493;53.098;6.064;2022-09-30T18:53:59;13.20;99.90
57664;DHT22;43493;53.098;6.064;2022-09-30T18:56:27;13.20;99.90
57664;DHT22;43493;53.098;6.064;2022-09-30T18:59:01;13.20;99.90
57664;DHT22;43493;53.098;6.064;2022-09-30T19:01:31;13.20;99.90
57664;DHT22;43493;53.098;6.064;2022-09-30T19:04:00;13.30;99.90
57664;DHT22;43493;53.098;6.064;2022-09-30T19:06:26;13.20;99.90
57664;DHT22;43493;53.098;6.064;2022-09-30T19:08:52;13.20;99.90
57664;DHT22;43493;53.098;6.064;2022-09-30T19:11:18;13.20;99.90
57664;DHT22;43493;53.098;6.064;2022-09-30T19:13:45;13.30;99.90
57664;DHT22;43493;53.098;6.064;2022-09-30T19:16:13;13.30;99.90
57664;DHT22;43493;53.098;6.064;2022-09-30T19:18:42;13.30;99.90
57664;DHT22;43493;53.098;6.064;2022-09-30T19:21:10;13.30;99.90
57664;DHT22;43493;53.098;6.064;2022-09-30T19:23:37;13.30;99.90
57664;DHT22;43493;53.098;6.064;2022-09-30T19:26:03;13.30;99.90
57664;DHT22;43493;53.098;6.064;2022-09-30T19:28:30;13.30;99.90
57664;DHT22;43493;53.098;6.064;2022-09-30T19:30:56;13.30;99.90
57664;DHT22;43493;53.098;6.064;2022-09-30T19:33:25;13.30;99.90
57664;DHT22;43493;53.098;6.064;2022-09-30T19:36:09;13.40;99.90
57664;DHT22;43493;53.098;6.064;2022-09-30T19:38:36;13.40;99.90
57664;DHT22;43493;53.098;6.064;2022-09-30T19:41:04;13.40;99.90
57664;DHT22;43493;53.098;6.064;2022-09-30T19:43:31;13.40;99.90
57664;DHT22;43493;53.098;6.064;2022-09-30T19:45:59;13.40;99.90
57664;DHT22;43493;53.098;6.064;2022-09-30T19:48:26;13.40;99.90
57664;DHT22;43493;53.098;6.064;2022-09-30T19:51:18;13.40;99.90
57664;DHT22;43493;53.098;6.064;2022-09-30T19:53:45;13.50;99.90
57664;DHT22;43493;53.098;6.064;2022-09-30T19:56:21;13.50;99.90
57664;DHT22;43493;53.098;6.064;2022-09-30T19:58:52;13.40;99.90
57664;DHT22;43493;53.098;6.064;2022-09-30T20:01:21;13.50;99.90
57664;DHT22;43493;53.098;6.064;2022-09-30T20:03:50;13.40;99.90
57664;DHT22;43493;53.098;6.064;2022-09-30T20:06:16;13.50;99.90
57664;DHT22;43493;53.098;6.064;2022-09-30T20:08:44;13.50;99.90
57664;DHT22;43493;53.098;6.064;2022-09-30T20:11:16;13.50;99.90
57664;DHT22;43493;53.098;6.064;2022-09-30T20:13:44;13.50;99.90
57664;DHT22;43493;53.098;6.064;2022-09-30T20:16:12;13.50;99.90
57664;DHT22;43493;53.098;6.064;2022-09-30T20:18:39;13.50;99.90
57664;DHT22;43493;53.098;6.064;2022-09-30T20:21:13;13.50;99.90
57664;DHT22;43493;53.098;6.064;2022-09-30T20:23:40;13.50;99.90
57664;DHT22;43493;53.098;6.064;2022-09-30T20:26:07;13.50;99.90
57664;DHT22;43493;53.098;6.064;2022-09-30T20:28:34;13.50;99.90
57664;DHT22;43493;53.098;6.064;2022-09-30T20:31:07;13.50;99.90
57664;DHT22;43493;53.098;6.064;2022-09-30T20:33:33;13.50;99.90
57664;DHT22;43493;53.098;6.064;2022-09-30T20:36:08;13.50;99.90
57664;DHT22;43493;53.098;6.064;2022-09-30T20:38:35;13.50;99.90
57664;DHT22;43493;53.098;6.064;2022-09-30T20:41:02;13.50;99.90
57664;DHT22;43493;53.098;6.064;2022-09-30T20:43:30;13.50;99.90
57664;DHT22;43493;53.098;6.064;2022-09-30T20:45:58;13.50;99.90
57664;DHT22;43493;53.098;6.064;2022-09-30T20:48:32;13.50;99.90
57664;DHT22;43493;53.098;6.064;2022-09-30T20:50:58;13.50;99.90
57664;DHT22;43493;53.098;6.064;2022-09-30T20:53:24;13.50;99.90
57664;DHT22;43493;53.098;6.064;2022-09-30T20:55:50;13.50;99.90
57664;DHT22;43493;53.098;6.064;2022-09-30T20:58:16;13.50;99.90
57664;DHT22;43493;53.098;6.064;2022-09-30T21:00:42;13.50;99.90
57664;DHT22;43493;53.098;6.064;2022-09-30T21:03:11;13.60;99.90
57664;DHT22;43493;53.098;6.064;2022-09-30T21:05:37;13.50;99.90